createdAt,value
2022-11-10T00:01:10.438Z,7.83
2022-11-10T00:03:38.859Z,7.88
2022-11-10T00:06:07.304Z,7.79
2022-11-10T00:08:34.444Z,7.81
2022-11-10T00:11:08.273Z,7.86
2022-11-10T00:13:57.170Z,7.84
2022-11-10T00:16:42.592Z,7.87
2022-11-10T00:19:09.687Z,7.78
2022-11-10T00:21:37.216Z,7.77
2022-11-10T00:24:04.396Z,7.80
2022-11-10T00:26:31.503Z,7.89
2022-11-10T00:28:58.055Z,7.82
2022-11-10T00:31:24.639Z,7.84
2022-11-10T00:33:51.207Z,7.86
2022-11-10T00:36:17.697Z,7.93
2022-11-10T00:38:44.229Z,7.94
2022-11-10T00:41:10.853Z,8.01
2022-11-10T00:43:39.867Z,7.96
2022-11-10T00:46:08.485Z,7.97
2022-11-10T00:48:35.299Z,7.95
2022-11-10T00:51:04.064Z,7.93
2022-11-10T00:53:30.574Z,7.94
2022-11-10T00:55:57.141Z,7.98
2022-11-10T00:58:23.889Z,7.96
2022-11-10T01:00:50.455Z,7.98
2022-11-10T01:03:17.956Z,7.89
2022-11-10T01:05:44.725Z,7.91
2022-11-10T01:08:11.918Z,7.89
2022-11-10T01:10:38.516Z,7.92
2022-11-10T01:13:05.104Z,7.90
2022-11-10T01:15:31.702Z,7.95
2022-11-10T01:17:58.252Z,7.93
2022-11-10T01:20:27.176Z,7.87
2022-11-10T01:22:53.687Z,7.82
2022-11-10T01:25:22.846Z,7.85
2022-11-10T01:27:52.860Z,7.83
2022-11-10T01:30:19.911Z,7.87
2022-11-10T01:32:46.453Z,7.85
2022-11-10T01:35:12.934Z,7.84
2022-11-10T01:37:40.653Z,7.85
2022-11-10T01:40:08.258Z,7.85
2022-11-10T01:42:51.908Z,7.85
2022-11-10T01:45:24.734Z,7.85
2022-11-10T01:47:54.825Z,7.89
2022-11-10T01:50:25.258Z,7.88
2022-11-10T01:52:55.492Z,7.89
2022-11-10T01:55:23.528Z,7.89
2022-11-10T01:57:55.553Z,7.85
2022-11-10T02:00:23.219Z,7.90
2022-11-10T02:02:56.636Z,7.93
2022-11-10T02:05:24.189Z,7.89
2022-11-10T02:07:51.853Z,7.90
2022-11-10T02:10:20.767Z,8.01
2022-11-10T02:12:49.769Z,7.96
2022-11-10T02:15:18.450Z,7.97
2022-11-10T02:17:48.519Z,8.03
2022-11-10T02:20:21.053Z,8.00
2022-11-10T02:22:47.761Z,8.05
2022-11-10T02:25:17.548Z,7.99
2022-11-10T02:27:46.399Z,8.05
2022-11-10T02:30:13.363Z,8.02
2022-11-10T02:32:39.918Z,8.12
2022-11-10T02:35:10.043Z,8.09
2022-11-10T02:37:36.619Z,8.05
2022-11-10T02:40:03.837Z,8.09
2022-11-10T02:42:30.379Z,8.03
2022-11-10T02:44:57.623Z,8.14
2022-11-10T02:47:24.144Z,8.09
2022-11-10T02:49:50.723Z,8.14
2022-11-10T02:52:17.224Z,8.14
2022-11-10T02:54:43.724Z,8.18
2022-11-10T02:57:10.262Z,8.20
2022-11-10T02:59:39.836Z,8.22
2022-11-10T03:02:06.329Z,8.18
2022-11-10T03:04:32.877Z,8.19
2022-11-10T03:07:01.696Z,8.18
2022-11-10T03:09:30.344Z,8.22
2022-11-10T03:11:56.874Z,8.16
2022-11-10T03:14:23.383Z,8.23
2022-11-10T03:16:49.897Z,8.31
2022-11-10T03:19:19.028Z,8.28
2022-11-10T03:21:45.546Z,8.29
2022-11-10T03:24:12.261Z,8.30
2022-11-10T03:26:40.987Z,8.30
2022-11-10T03:29:07.519Z,8.31
2022-11-10T03:31:34.049Z,8.46
2022-11-10T03:34:00.611Z,8.45
2022-11-10T03:36:27.144Z,8.48
2022-11-10T03:38:53.692Z,8.61
2022-11-10T03:41:20.944Z,8.78
2022-11-10T03:43:50.581Z,9.10
2022-11-10T03:46:19.872Z,9.41
2022-11-10T03:48:53.639Z,9.54
2022-11-10T03:51:25.025Z,9.66
2022-11-10T03:53:51.610Z,9.76
2022-11-10T03:56:18.201Z,9.81
2022-11-10T03:58:44.724Z,9.84
2022-11-10T04:01:11.463Z,9.84
2022-11-10T04:03:38.039Z,9.84
2022-11-10T04:06:26.749Z,9.85
2022-11-10T04:09:01.905Z,9.84
2022-11-10T04:11:48.524Z,9.86
2022-11-10T04:14:34.003Z,9.87
2022-11-10T04:17:01.647Z,9.87
2022-11-10T04:19:31.516Z,9.81
2022-11-10T04:22:00.367Z,9.83
2022-11-10T04:24:31.914Z,9.86
2022-11-10T04:26:58.498Z,9.93
2022-11-10T04:29:27.303Z,9.95
2022-11-10T04:31:53.828Z,10.08
2022-11-10T04:34:20.331Z,10.04
2022-11-10T04:36:49.318Z,10.03
2022-11-10T04:39:18.113Z,10.08
2022-11-10T04:41:44.766Z,10.10
2022-11-10T04:44:11.307Z,10.15
2022-11-10T04:46:39.754Z,10.19
2022-11-10T04:49:07.760Z,10.22
2022-11-10T04:51:36.968Z,10.20
2022-11-10T04:54:04.825Z,10.20
2022-11-10T04:56:34.926Z,10.13
2022-11-10T04:59:01.576Z,10.12
2022-11-10T05:01:28.394Z,10.18
2022-11-10T05:03:55.824Z,10.12
2022-11-10T05:06:22.754Z,10.14
2022-11-10T05:08:50.120Z,10.19
2022-11-10T05:11:17.298Z,10.11
2022-11-10T05:13:44.881Z,10.11
2022-11-10T05:16:12.104Z,10.12
2022-11-10T05:18:38.737Z,10.07
2022-11-10T05:21:05.410Z,10.07
2022-11-10T05:23:41.753Z,10.10
2022-11-10T05:26:13.937Z,10.05
2022-11-10T05:28:42.272Z,10.10
2022-11-10T05:31:09.138Z,10.00
2022-11-10T05:33:36.575Z,10.09
2022-11-10T05:36:03.735Z,10.02
2022-11-10T05:38:30.360Z,10.01
2022-11-10T05:40:57.135Z,10.03
2022-11-10T05:43:26.798Z,10.06
2022-11-10T05:45:53.479Z,10.05
2022-11-10T05:48:20.239Z,9.95
2022-11-10T05:50:49.705Z,9.95
2022-11-10T05:53:16.235Z,9.98
2022-11-10T05:55:47.364Z,9.93
2022-11-10T05:58:16.373Z,9.85
2022-11-10T06:00:42.999Z,9.86
2022-11-10T06:03:16.296Z,9.92
2022-11-10T06:05:42.927Z,9.95
2022-11-10T06:08:09.832Z,9.86
2022-11-10T06:10:37.812Z,9.82
2022-11-10T06:13:05.058Z,9.85
2022-11-10T06:15:31.687Z,9.86
2022-11-10T06:17:58.716Z,9.86
2022-11-10T06:20:26.199Z,9.81
2022-11-10T06:23:04.517Z,9.85
2022-11-10T06:25:34.200Z,9.93
2022-11-10T06:28:01.048Z,9.90
2022-11-10T06:30:29.267Z,9.95
2022-11-10T06:32:56.338Z,9.97
2022-11-10T06:35:23.890Z,10.06
2022-11-10T06:38:01.718Z,10.05
2022-11-10T06:40:29.986Z,10.08
2022-11-10T06:42:58.728Z,10.04
2022-11-10T06:45:28.318Z,10.09
2022-11-10T06:48:05.657Z,10.21
2022-11-10T06:50:35.275Z,10.24
2022-11-10T06:53:02.155Z,10.24
2022-11-10T06:55:32.367Z,10.37
2022-11-10T06:57:59.068Z,10.26
2022-11-10T07:00:29.610Z,10.30
2022-11-10T07:03:05.066Z,10.30
2022-11-10T07:05:33.594Z,10.38
2022-11-10T07:08:13.651Z,10.44
2022-11-10T07:10:40.127Z,10.42
2022-11-10T07:13:06.673Z,10.37
2022-11-10T07:15:34.182Z,10.34
2022-11-10T07:18:02.539Z,10.33
2022-11-10T07:20:30.275Z,10.36
2022-11-10T07:23:00.735Z,10.37
2022-11-10T07:25:28.963Z,10.37
2022-11-10T07:27:56.886Z,10.40
2022-11-10T07:30:23.435Z,10.41
2022-11-10T07:33:06.478Z,10.44
2022-11-10T07:35:34.524Z,10.41
2022-11-10T07:38:12.149Z,10.42
2022-11-10T07:40:39.412Z,10.53
2022-11-10T07:43:06.301Z,10.60
2022-11-10T07:45:33.626Z,10.61
2022-11-10T07:48:05.880Z,10.60
2022-11-10T07:50:33.813Z,10.90
2022-11-10T07:53:07.484Z,10.93
2022-11-10T07:55:34.874Z,10.90
2022-11-10T07:58:01.337Z,10.82
2022-11-10T08:00:30.718Z,11.04
2022-11-10T08:03:26.817Z,10.89
2022-11-10T08:05:53.388Z,10.95
2022-11-10T08:08:22.172Z,10.95
2022-11-10T08:10:48.644Z,10.80
2022-11-10T08:13:15.157Z,10.79
2022-11-10T08:15:41.590Z,10.81
2022-11-10T08:18:23.657Z,10.79
2022-11-10T08:20:50.211Z,10.84
2022-11-10T08:23:17.894Z,10.82
2022-11-10T08:25:44.954Z,10.85
2022-11-10T08:28:19.533Z,10.83
2022-11-10T08:30:47.940Z,10.77
2022-11-10T08:33:16.987Z,10.83
2022-11-10T08:35:48.668Z,10.90
2022-11-10T08:38:20.452Z,10.94
2022-11-10T08:40:47.489Z,10.99
2022-11-10T08:43:17.828Z,11.09
2022-11-10T08:45:45.283Z,11.25
2022-11-10T08:48:20.425Z,11.44
2022-11-10T08:50:50.413Z,11.61
2022-11-10T08:53:23.519Z,11.67
2022-11-10T08:55:51.362Z,11.60
2022-11-10T08:58:21.179Z,11.67
2022-11-10T09:00:48.370Z,11.74
2022-11-10T09:03:18.812Z,11.76
2022-11-10T09:05:46.819Z,11.84
2022-11-10T09:08:13.617Z,11.94
2022-11-10T09:10:45.943Z,12.11
2022-11-10T09:13:15.243Z,12.12
2022-11-10T09:15:43.452Z,12.31
2022-11-10T09:18:15.372Z,12.31
2022-11-10T09:20:42.282Z,12.51
2022-11-10T09:23:17.110Z,12.85
2022-11-10T09:25:51.904Z,12.95
2022-11-10T09:28:19.156Z,13.08
2022-11-10T09:30:47.231Z,13.07
2022-11-10T09:33:13.830Z,13.11
2022-11-10T09:35:40.974Z,13.10
2022-11-10T09:38:07.699Z,13.11
2022-11-10T09:41:07.603Z,13.19
2022-11-10T09:43:34.039Z,13.07
2022-11-10T09:46:06.549Z,13.13
2022-11-10T09:48:41.857Z,13.26
2022-11-10T09:51:29.500Z,13.33
2022-11-10T09:54:06.082Z,13.29
2022-11-10T09:56:35.212Z,13.14
2022-11-10T09:59:07.563Z,13.28
2022-11-10T10:01:54.972Z,13.16
2022-11-10T10:04:51.829Z,13.09
2022-11-10T10:07:25.910Z,13.15
2022-11-10T10:10:02.329Z,12.94
2022-11-10T10:12:43.931Z,12.89
2022-11-10T10:15:16.458Z,12.97
2022-11-10T10:17:48.825Z,13.11
2022-11-10T10:20:27.924Z,12.73
2022-11-10T10:23:09.591Z,12.79
2022-11-10T10:25:39.623Z,12.62
2022-11-10T10:28:17.112Z,12.72
2022-11-10T10:30:46.423Z,12.54
2022-11-10T10:33:18.785Z,12.68
2022-11-10T10:35:47.623Z,12.76
2022-11-10T10:38:26.594Z,13.05
2022-11-10T10:41:09.826Z,13.29
2022-11-10T10:43:36.693Z,13.37
2022-11-10T10:46:15.786Z,13.65
2022-11-10T10:48:42.821Z,13.95
2022-11-10T10:51:09.570Z,14.25
2022-11-10T10:53:47.548Z,14.14
2022-11-10T10:56:20.177Z,14.20
2022-11-10T10:58:56.350Z,13.95
2022-11-10T11:01:30.783Z,13.89
2022-11-10T11:03:58.543Z,14.04
2022-11-10T11:06:28.656Z,14.19
2022-11-10T11:08:59.972Z,14.03
2022-11-10T11:11:38.852Z,14.36
2022-11-10T11:14:30.946Z,14.47
2022-11-10T11:17:19.156Z,14.62
2022-11-10T11:19:45.778Z,14.35
2022-11-10T11:22:39.831Z,14.27
2022-11-10T11:25:26.955Z,14.08
2022-11-10T11:28:10.852Z,13.87
2022-11-10T11:30:58.182Z,14.15
2022-11-10T11:33:30.755Z,14.05
2022-11-10T11:36:08.957Z,14.01
2022-11-10T11:38:56.373Z,13.75
2022-11-10T11:41:45.190Z,14.01
2022-11-10T11:44:24.906Z,14.05
2022-11-10T11:47:25.376Z,14.17
2022-11-10T11:49:58.725Z,14.21
2022-11-10T11:52:38.487Z,14.36
2022-11-10T11:55:28.993Z,14.34
2022-11-10T11:58:40.589Z,14.42
2022-11-10T12:01:25.771Z,14.56
2022-11-10T12:04:04.257Z,14.79
2022-11-10T12:06:52.011Z,14.83
2022-11-10T12:09:39.875Z,14.67
2022-11-10T12:12:12.480Z,14.62
2022-11-10T12:14:44.980Z,14.62
2022-11-10T12:17:29.665Z,14.42
2022-11-10T12:20:20.714Z,14.56
2022-11-10T12:22:52.698Z,14.74
2022-11-10T12:25:36.394Z,14.70
2022-11-10T12:28:36.172Z,14.68
2022-11-10T12:31:06.029Z,14.64
2022-11-10T12:33:46.565Z,14.59
2022-11-10T12:36:15.289Z,14.63
2022-11-10T12:38:59.670Z,14.44
2022-11-10T12:41:40.042Z,14.60
2022-11-10T12:44:26.538Z,14.50
2022-11-10T12:46:56.899Z,14.62
2022-11-10T12:49:35.012Z,14.68
2022-11-10T12:52:22.786Z,14.56
2022-11-10T12:54:51.619Z,14.63
2022-11-10T12:57:22.521Z,14.59
2022-11-10T12:59:53.541Z,14.61
2022-11-10T13:02:40.438Z,14.60
2022-11-10T13:05:24.320Z,14.42
2022-11-10T13:08:07.141Z,14.56
2022-11-10T13:10:34.091Z,14.84
2022-11-10T13:13:03.754Z,14.81
2022-11-10T13:15:39.137Z,14.69
2022-11-10T13:18:22.121Z,14.79
2022-11-10T13:20:50.413Z,14.71
2022-11-10T13:23:26.823Z,14.64
2022-11-10T13:25:55.249Z,14.65
2022-11-10T13:28:46.945Z,14.73
2022-11-10T13:31:28.663Z,14.83
2022-11-10T13:34:04.456Z,14.66
2022-11-10T13:36:40.276Z,14.64
2022-11-10T13:39:16.184Z,14.32
2022-11-10T13:41:47.356Z,14.39
2022-11-10T13:44:36.224Z,14.37
2022-11-10T13:47:08.845Z,14.43
2022-11-10T13:49:53.666Z,14.32
2022-11-10T13:52:28.908Z,14.21
2022-11-10T13:55:34.737Z,14.10
2022-11-10T13:58:09.517Z,14.01
2022-11-10T14:00:37.162Z,13.95
2022-11-10T14:03:10.278Z,13.91
2022-11-10T14:05:41.901Z,13.86
2022-11-10T14:08:19.768Z,13.84
2022-11-10T14:10:59.898Z,14.04
2022-11-10T14:13:32.207Z,14.02
2022-11-10T14:15:59.304Z,14.04
2022-11-10T14:18:37.093Z,14.06
2022-11-10T14:21:03.893Z,13.93
2022-11-10T14:23:45.738Z,13.90
2022-11-10T14:26:30.414Z,14.03
2022-11-10T14:28:59.386Z,13.90
2022-11-10T14:31:26.411Z,13.96
2022-11-10T14:33:55.370Z,13.95
2022-11-10T14:36:22.543Z,13.82
2022-11-10T14:38:52.778Z,13.78
2022-11-10T14:41:24.732Z,13.76
2022-11-10T14:44:05.698Z,13.73
2022-11-10T14:46:32.341Z,13.59
2022-11-10T14:49:01.941Z,13.48
2022-11-10T14:51:29.714Z,13.50
2022-11-10T14:53:58.165Z,13.30
2022-11-10T14:56:30.259Z,13.27
2022-11-10T14:58:59.194Z,13.21
2022-11-10T15:01:33.628Z,13.18
2022-11-10T15:04:02.524Z,13.04
2022-11-10T15:06:30.670Z,13.00
2022-11-10T15:08:57.556Z,12.88
2022-11-10T15:12:01.254Z,12.79
2022-11-10T15:14:37.131Z,12.67
2022-11-10T15:17:09.276Z,12.56
2022-11-10T15:19:39.296Z,12.49
2022-11-10T15:22:12.786Z,12.39
2022-11-10T15:24:47.896Z,12.33
2022-11-10T15:27:24.376Z,12.08
2022-11-10T15:29:51.743Z,11.85
2022-11-10T15:32:23.622Z,11.80
2022-11-10T15:34:51.029Z,11.75
2022-11-10T15:37:30.568Z,11.69
2022-11-10T15:40:30.385Z,11.67
2022-11-10T15:43:30.303Z,11.55
2022-11-10T15:46:03.125Z,11.37
2022-11-10T15:48:38.895Z,11.36
2022-11-10T15:51:14.323Z,11.16
2022-11-10T15:53:46.907Z,11.13
2022-11-10T15:56:17.216Z,10.96
2022-11-10T15:59:01.835Z,10.89
2022-11-10T16:01:31.729Z,10.64
2022-11-10T16:04:00.560Z,10.71
2022-11-10T16:06:27.509Z,10.62
2022-11-10T16:08:59.254Z,10.30
2022-11-10T16:11:26.422Z,10.32
2022-11-10T16:13:54.739Z,10.46
2022-11-10T16:16:24.102Z,10.57
2022-11-10T16:18:51.804Z,10.30
2022-11-10T16:21:26.234Z,10.00
2022-11-10T16:23:53.312Z,10.37
2022-11-10T16:26:24.124Z,10.21
2022-11-10T16:28:51.161Z,10.04
2022-11-10T16:31:19.847Z,9.94
2022-11-10T16:33:47.081Z,9.77
2022-11-10T16:36:23.343Z,9.73
2022-11-10T16:38:50.230Z,9.89
2022-11-10T16:41:16.925Z,9.86
2022-11-10T16:43:43.518Z,9.70
2022-11-10T16:46:24.394Z,9.66
2022-11-10T16:48:55.687Z,9.61
2022-11-10T16:51:29.328Z,9.48
2022-11-10T16:53:56.804Z,9.43
2022-11-10T16:56:23.640Z,9.66
2022-11-10T16:58:50.306Z,9.42
2022-11-10T17:01:21.520Z,9.30
2022-11-10T17:03:52.125Z,9.29
2022-11-10T17:06:22.023Z,9.28
2022-11-10T17:08:52.062Z,9.30
2022-11-10T17:11:19.168Z,9.00
2022-11-10T17:13:45.959Z,8.85
2022-11-10T17:16:37.703Z,8.88
2022-11-10T17:19:07.506Z,8.97
2022-11-10T17:21:36.291Z,8.86
2022-11-10T17:24:04.073Z,8.78
2022-11-10T17:26:33.947Z,8.63
2022-11-10T17:29:00.496Z,8.52
2022-11-10T17:31:27.091Z,8.45
2022-11-10T17:33:53.895Z,8.49
2022-11-10T17:36:24.609Z,8.50
2022-11-10T17:38:52.310Z,8.45
2022-11-10T17:41:20.229Z,8.56
2022-11-10T17:43:47.322Z,8.62
2022-11-10T17:46:16.241Z,8.53
2022-11-10T17:48:43.043Z,8.27
2022-11-10T17:51:18.305Z,8.29
2022-11-10T17:53:45.370Z,8.21
2022-11-10T17:56:12.072Z,8.12
2022-11-10T17:58:38.736Z,8.15
2022-11-10T18:01:31.796Z,7.88
2022-11-10T18:03:58.523Z,7.79
2022-11-10T18:06:25.167Z,7.59
2022-11-10T18:08:54.067Z,7.77
2022-11-10T18:11:20.702Z,7.81
2022-11-10T18:13:47.350Z,7.54
2022-11-10T18:16:14.208Z,7.52
2022-11-10T18:18:42.968Z,7.63
2022-11-10T18:21:12.387Z,7.54
2022-11-10T18:23:39.169Z,7.52
2022-11-10T18:26:07.977Z,7.51
2022-11-10T18:28:35.783Z,7.52
2022-11-10T18:31:09.933Z,7.61
2022-11-10T18:33:37.029Z,7.54
2022-11-10T18:36:04.017Z,7.47
2022-11-10T18:38:30.701Z,7.58
2022-11-10T18:41:21.982Z,7.48
2022-11-10T18:43:48.720Z,7.37
2022-11-10T18:46:15.404Z,7.30
2022-11-10T18:48:42.512Z,7.38
2022-11-10T18:51:09.159Z,7.33
2022-11-10T18:53:38.449Z,7.21
2022-11-10T18:56:05.562Z,7.12
2022-11-10T18:58:32.238Z,7.10
2022-11-10T19:01:09.345Z,7.03
2022-11-10T19:03:36.883Z,6.99
2022-11-10T19:06:04.585Z,7.04
2022-11-10T19:08:31.166Z,7.04
2022-11-10T19:10:57.894Z,7.06
2022-11-10T19:13:24.711Z,6.86
2022-11-10T19:15:51.876Z,6.85
2022-11-10T19:18:18.367Z,6.69
2022-11-10T19:20:45.017Z,6.40
2022-11-10T19:23:11.580Z,6.52
2022-11-10T19:25:38.219Z,6.48
2022-11-10T19:28:11.335Z,6.53
2022-11-10T19:30:39.426Z,6.64
2022-11-10T19:33:06.343Z,6.33
2022-11-10T19:35:33.333Z,6.50
2022-11-10T19:38:00.266Z,6.47
2022-11-10T19:40:27.286Z,6.34
2022-11-10T19:42:54.050Z,6.43
2022-11-10T19:45:20.953Z,6.41
2022-11-10T19:47:47.681Z,6.39
2022-11-10T19:50:16.755Z,6.21
2022-11-10T19:52:43.405Z,6.39
2022-11-10T19:55:10.230Z,6.30
2022-11-10T19:57:37.047Z,6.26
2022-11-10T20:00:07.300Z,6.09
2022-11-10T20:02:34.291Z,6.05
2022-11-10T20:05:13.529Z,6.13
2022-11-10T20:07:58.738Z,6.10
2022-11-10T20:10:25.418Z,5.87
2022-11-10T20:12:52.161Z,6.14
2022-11-10T20:15:18.716Z,6.19
2022-11-10T20:17:45.283Z,5.96
2022-11-10T20:20:14.425Z,5.89
2022-11-10T20:22:44.196Z,5.78
2022-11-10T20:25:10.842Z,5.81
2022-11-10T20:27:37.929Z,5.89
2022-11-10T20:30:05.538Z,5.88
2022-11-10T20:32:32.432Z,5.80
2022-11-10T20:35:00.183Z,5.75
2022-11-10T20:37:26.912Z,5.79
2022-11-10T20:39:53.438Z,5.66
2022-11-10T20:42:20.005Z,5.70
2022-11-10T20:44:46.561Z,5.65
2022-11-10T20:47:15.646Z,5.58
2022-11-10T20:49:47.149Z,5.54
2022-11-10T20:52:13.821Z,5.47
2022-11-10T20:54:43.688Z,5.61
2022-11-10T20:57:10.761Z,5.57
2022-11-10T20:59:37.333Z,5.63
2022-11-10T21:02:08.947Z,5.64
2022-11-10T21:04:40.304Z,5.27
2022-11-10T21:07:09.283Z,5.21
2022-11-10T21:09:35.892Z,5.38
2022-11-10T21:12:21.093Z,5.41
2022-11-10T21:14:47.693Z,5.37
2022-11-10T21:17:14.262Z,5.11
2022-11-10T21:19:40.973Z,5.27
2022-11-10T21:22:07.553Z,5.16
2022-11-10T21:24:34.117Z,5.05
2022-11-10T21:27:00.718Z,5.04
2022-11-10T21:29:27.294Z,4.96
2022-11-10T21:31:53.876Z,5.03
2022-11-10T21:34:20.545Z,5.09
2022-11-10T21:36:49.597Z,4.92
2022-11-10T21:39:16.298Z,4.83
2022-11-10T21:41:42.837Z,4.97
2022-11-10T21:44:09.432Z,4.94
2022-11-10T21:46:38.623Z,4.86
2022-11-10T21:49:07.811Z,4.99
2022-11-10T21:51:34.951Z,5.04
2022-11-10T21:54:03.742Z,5.07
2022-11-10T21:56:30.292Z,5.01
2022-11-10T21:58:57.851Z,4.91
2022-11-10T22:01:24.460Z,4.91
2022-11-10T22:03:51.071Z,4.92
2022-11-10T22:06:18.919Z,4.94
2022-11-10T22:08:47.404Z,5.05
2022-11-10T22:11:41.571Z,4.99
2022-11-10T22:14:30.956Z,5.04
2022-11-10T22:17:16.284Z,4.86
2022-11-10T22:19:44.497Z,4.92
2022-11-10T22:22:14.297Z,4.78
2022-11-10T22:24:41.297Z,4.59
2022-11-10T22:27:08.311Z,4.75
2022-11-10T22:29:34.943Z,4.66
2022-11-10T22:32:03.966Z,4.72
2022-11-10T22:34:30.521Z,4.60
2022-11-10T22:36:59.325Z,4.46
2022-11-10T22:39:48.271Z,4.52
2022-11-10T22:42:33.226Z,4.40
2022-11-10T22:44:59.766Z,4.35
2022-11-10T22:47:46.274Z,4.32
2022-11-10T22:50:12.838Z,4.28
2022-11-10T22:52:39.345Z,4.23
2022-11-10T22:55:06.099Z,4.23
2022-11-10T22:57:34.833Z,4.15
2022-11-10T23:00:01.443Z,4.18
2022-11-10T23:02:28.079Z,4.10
2022-11-10T23:04:54.627Z,4.14
2022-11-10T23:07:25.289Z,4.09
2022-11-10T23:09:51.806Z,4.09
2022-11-10T23:12:18.454Z,4.09
2022-11-10T23:14:45.011Z,4.14
2022-11-10T23:17:11.556Z,4.04
2022-11-10T23:19:38.087Z,4.05
2022-11-10T23:22:04.614Z,4.17
2022-11-10T23:24:31.199Z,3.93
2022-11-10T23:26:57.737Z,4.04
2022-11-10T23:29:27.091Z,4.10
2022-11-10T23:31:53.636Z,4.06
2022-11-10T23:34:22.560Z,4.10
2022-11-10T23:36:49.093Z,4.06
2022-11-10T23:39:15.672Z,4.10
2022-11-10T23:41:42.182Z,3.93
2022-11-10T23:44:08.763Z,3.86
2022-11-10T23:46:37.511Z,3.64
2022-11-10T23:49:04.204Z,3.68
2022-11-10T23:51:30.759Z,3.86
2022-11-10T23:53:57.375Z,3.79
2022-11-10T23:56:23.977Z,3.71
2022-11-10T23:58:50.547Z,3.72
